Airport View

Enter ICAO identifier to see the current METAR for that AWOS.

KFNL for example

KSDY 020855Z AUTO 18007KT 10SM SCT090 12/09 A2981 RMK AO1 57010

2 Sep 2014 09:05

Frequency: 119.275

Phone: 406-482-7323

Other Area AWOS: KISN - KS25 - KGDV - KPO1

TAF KSDY 020520Z 0206/0306 VRB05KT P6SM BKN120 FM021200 25009KT P6SM SCT080 AMD LTD TO CLD VIS AND WIND